createdAt,value
2023-04-18T00:00:58.250Z,13.41
2023-04-18T00:03:24.975Z,13.80
2023-04-18T00:05:51.771Z,14.71
2023-04-18T00:08:18.409Z,14.67
2023-04-18T00:10:48.072Z,14.18
2023-04-18T00:13:14.644Z,14.87
2023-04-18T00:15:41.186Z,15.43
2023-04-18T00:18:07.848Z,14.78
2023-04-18T00:20:34.364Z,15.63
2023-04-18T00:23:00.836Z,14.71
2023-04-18T00:25:27.281Z,14.87
2023-04-18T00:27:53.857Z,14.48
2023-04-18T00:30:20.368Z,14.25
2023-04-18T00:32:46.902Z,14.65
2023-04-18T00:35:13.548Z,14.43
2023-04-18T00:37:40.095Z,14.88
2023-04-18T00:40:06.582Z,15.38
2023-04-18T00:42:33.083Z,15.48
2023-04-18T00:44:59.556Z,15.61
2023-04-18T00:47:29.079Z,15.09
2023-04-18T00:49:55.658Z,13.78
2023-04-18T00:52:22.247Z,14.68
2023-04-18T00:54:48.826Z,14.91
2023-04-18T00:57:15.375Z,16.23
2023-04-18T00:59:41.911Z,14.85
2023-04-18T01:02:08.540Z,15.25
2023-04-18T01:04:35.131Z,14.82
2023-04-18T01:07:01.704Z,14.05
2023-04-18T01:09:28.209Z,15.04
2023-04-18T01:11:54.789Z,14.94
2023-04-18T01:14:21.290Z,15.68
2023-04-18T01:16:47.855Z,15.47
2023-04-18T01:19:14.384Z,14.81
2023-04-18T01:21:41.010Z,14.43
2023-04-18T01:24:07.530Z,15.04
2023-04-18T01:26:34.072Z,15.13
2023-04-18T01:29:00.597Z,13.73
2023-04-18T01:31:27.395Z,14.85
2023-04-18T01:33:53.969Z,15.35
2023-04-18T01:36:20.401Z,15.37
2023-04-18T01:38:46.898Z,15.28
2023-04-18T01:41:13.472Z,15.61
2023-04-18T01:43:40.072Z,14.50
2023-04-18T01:46:06.646Z,15.49
2023-04-18T01:48:33.202Z,15.99
2023-04-18T01:50:59.658Z,14.79
2023-04-18T01:53:26.250Z,15.14
2023-04-18T01:55:52.787Z,16.07
2023-04-18T01:58:21.100Z,14.86
2023-04-18T02:00:47.646Z,14.60
2023-04-18T02:03:14.445Z,14.60
2023-04-18T02:05:41.190Z,15.11
2023-04-18T02:08:07.766Z,14.92
2023-04-18T02:10:34.300Z,15.37
2023-04-18T02:13:00.713Z,15.56
2023-04-18T02:15:27.204Z,16.66
2023-04-18T02:17:53.785Z,15.56
2023-04-18T02:20:20.372Z,15.36
2023-04-18T02:22:46.901Z,15.10
2023-04-18T02:25:13.423Z,15.29
2023-04-18T02:27:40.046Z,14.63
2023-04-18T02:30:06.542Z,16.34
2023-04-18T02:32:33.098Z,14.33
2023-04-18T02:34:59.607Z,14.98
2023-04-18T02:37:26.168Z,16.72
2023-04-18T02:39:52.640Z,15.79
2023-04-18T02:42:19.211Z,15.63
2023-04-18T02:44:45.799Z,15.00
2023-04-18T02:47:12.297Z,14.72
2023-04-18T02:49:38.807Z,15.67
2023-04-18T02:52:05.349Z,15.85
2023-04-18T02:54:31.829Z,15.14
2023-04-18T02:56:58.325Z,16.86
2023-04-18T02:59:24.930Z,15.25
2023-04-18T03:01:51.456Z,16.23
2023-04-18T03:04:18.161Z,16.61
2023-04-18T03:06:44.745Z,15.34
2023-04-18T03:09:11.224Z,16.27
2023-04-18T03:11:37.731Z,15.89
2023-04-18T03:14:04.290Z,15.62
2023-04-18T03:16:30.713Z,15.22
2023-04-18T03:18:57.249Z,16.31
2023-04-18T03:21:23.763Z,15.15
2023-04-18T03:23:50.242Z,16.75
2023-04-18T03:26:16.858Z,14.64
2023-04-18T03:28:43.430Z,16.25
2023-04-18T03:31:10.104Z,16.41
2023-04-18T03:33:36.785Z,16.77
2023-04-18T03:36:03.320Z,16.07
2023-04-18T03:38:29.865Z,15.54
2023-04-18T03:40:56.433Z,16.55
2023-04-18T03:43:24.040Z,16.00
2023-04-18T03:45:50.647Z,15.64
2023-04-18T03:48:17.220Z,16.82
2023-04-18T03:50:43.728Z,15.80
2023-04-18T03:53:10.267Z,15.10
2023-04-18T03:55:36.868Z,15.36
2023-04-18T03:58:03.423Z,16.86
2023-04-18T04:00:30.056Z,15.94
2023-04-18T04:02:56.837Z,16.34
2023-04-18T04:05:23.572Z,15.41
2023-04-18T04:07:50.213Z,17.14
2023-04-18T04:10:16.809Z,16.90
2023-04-18T04:12:43.347Z,16.77
2023-04-18T04:15:09.884Z,17.33
2023-04-18T04:17:36.596Z,17.44
2023-04-18T04:20:03.129Z,17.61
2023-04-18T04:22:29.779Z,16.13
2023-04-18T04:24:56.301Z,17.58
2023-04-18T04:27:22.821Z,16.44
2023-04-18T04:29:49.372Z,17.16
2023-04-18T04:32:18.782Z,16.54
2023-04-18T04:34:45.337Z,16.86
2023-04-18T04:37:11.871Z,17.45
2023-04-18T04:39:38.445Z,16.51
2023-04-18T04:42:04.947Z,16.29
2023-04-18T04:44:31.500Z,16.37
2023-04-18T04:46:58.006Z,16.33
2023-04-18T04:49:24.496Z,16.79
2023-04-18T04:51:50.941Z,16.80
2023-04-18T04:54:17.388Z,16.36
2023-04-18T04:56:43.858Z,16.62
2023-04-18T04:59:10.343Z,17.12
2023-04-18T05:01:36.854Z,17.95
2023-04-18T05:04:03.450Z,17.62
2023-04-18T05:06:30.005Z,17.03
2023-04-18T05:08:56.426Z,17.00
2023-04-18T05:11:22.938Z,18.41
2023-04-18T05:13:49.407Z,16.69
2023-04-18T05:16:18.467Z,16.28
2023-04-18T05:18:44.908Z,17.32
2023-04-18T05:21:11.419Z,16.22
2023-04-18T05:23:37.908Z,16.99
2023-04-18T05:26:04.416Z,17.58
2023-04-18T05:28:30.839Z,17.99
2023-04-18T05:30:57.397Z,18.29
2023-04-18T05:33:23.866Z,17.10
2023-04-18T05:35:50.400Z,15.74
2023-04-18T05:38:16.848Z,16.94
2023-04-18T05:40:43.339Z,16.21
2023-04-18T05:43:09.783Z,16.09
2023-04-18T05:45:36.255Z,16.75
2023-04-18T05:48:02.825Z,16.28
2023-04-18T05:50:29.270Z,16.99
2023-04-18T05:52:55.695Z,18.85
2023-04-18T05:55:22.107Z,19.95
2023-04-18T05:57:48.495Z,19.37
2023-04-18T06:00:15.030Z,19.93
2023-04-18T06:02:44.388Z,20.33
2023-04-18T06:05:11.119Z,21.29
2023-04-18T06:07:37.754Z,19.63
2023-04-18T06:10:04.279Z,21.67
2023-04-18T06:12:30.758Z,21.68
2023-04-18T06:14:57.253Z,23.19
2023-04-18T06:17:23.673Z,23.83
2023-04-18T06:19:50.367Z,46.83
2023-04-18T06:22:16.804Z,45.05
2023-04-18T06:24:43.438Z,53.47
2023-04-18T06:27:17.704Z,58.51
2023-04-18T06:29:56.242Z,59.00
2023-04-18T06:32:22.787Z,67.54
2023-04-18T06:34:50.513Z,69.18
2023-04-18T06:37:17.590Z,68.45
2023-04-18T06:39:44.819Z,67.96
2023-04-18T06:42:11.335Z,65.18
2023-04-18T06:44:37.832Z,63.23
2023-04-18T06:47:04.444Z,58.75
2023-04-18T06:49:30.865Z,58.98
2023-04-18T06:51:57.304Z,53.83
2023-04-18T06:54:24.659Z,54.81
2023-04-18T06:56:51.192Z,52.19
2023-04-18T06:59:17.680Z,48.59
2023-04-18T07:01:44.193Z,46.63
2023-04-18T07:04:10.844Z,44.82
2023-04-18T07:06:37.626Z,43.92
2023-04-18T07:09:04.197Z,43.40
2023-04-18T07:11:30.680Z,41.74
2023-04-18T07:13:57.454Z,38.28
2023-04-18T07:16:23.960Z,36.57
2023-04-18T07:18:50.443Z,38.53
2023-04-18T07:21:16.943Z,37.03
2023-04-18T07:23:43.389Z,38.42
2023-04-18T07:26:09.926Z,34.28
2023-04-18T07:28:36.490Z,31.83
2023-04-18T07:31:03.011Z,32.56
2023-04-18T07:33:29.500Z,30.75
2023-04-18T07:35:56.019Z,31.16
2023-04-18T07:38:22.551Z,30.21
2023-04-18T07:40:49.134Z,30.96
2023-04-18T07:43:15.662Z,31.11
2023-04-18T07:45:42.227Z,29.01
2023-04-18T07:48:08.736Z,29.02
2023-04-18T07:50:35.304Z,28.14
2023-04-18T07:53:01.824Z,29.24
2023-04-18T07:55:28.390Z,27.92
2023-04-18T07:57:54.837Z,25.17
2023-04-18T08:00:21.327Z,27.63
2023-04-18T08:02:48.821Z,26.64
2023-04-18T08:05:15.498Z,27.03
2023-04-18T08:07:42.147Z,26.55
2023-04-18T08:10:08.715Z,26.29
2023-04-18T08:12:35.234Z,25.73
2023-04-18T08:15:01.904Z,26.11
2023-04-18T08:17:28.428Z,26.36
2023-04-18T08:19:54.982Z,23.59
2023-04-18T08:22:21.512Z,24.91
2023-04-18T08:25:03.364Z,26.03
2023-04-18T08:27:31.213Z,24.97
2023-04-18T08:29:57.697Z,24.86
2023-04-18T08:32:24.189Z,23.56
2023-04-18T08:34:50.698Z,24.81
2023-04-18T08:37:17.212Z,24.42
2023-04-18T08:39:43.720Z,23.61
2023-04-18T08:42:10.231Z,22.06
2023-04-18T08:44:36.781Z,22.74
2023-04-18T08:47:03.318Z,23.61
2023-04-18T08:49:29.888Z,25.81
2023-04-18T08:51:56.446Z,22.60
2023-04-18T08:54:23.567Z,23.29
2023-04-18T08:56:51.127Z,22.24
2023-04-18T08:59:17.619Z,22.19
2023-04-18T09:01:44.089Z,22.11
2023-04-18T09:04:10.629Z,22.42
2023-04-18T09:06:37.144Z,22.74
2023-04-18T09:09:03.728Z,21.97
2023-04-18T09:11:30.228Z,22.66
2023-04-18T09:13:56.788Z,23.03
2023-04-18T09:16:23.366Z,22.31
2023-04-18T09:18:49.980Z,22.11
2023-04-18T09:21:16.596Z,24.11
2023-04-18T09:23:43.230Z,21.87
2023-04-18T09:26:09.787Z,21.48
2023-04-18T09:28:36.344Z,21.53
2023-04-18T09:31:02.971Z,21.19
2023-04-18T09:33:29.607Z,20.69
2023-04-18T09:35:56.177Z,20.95
2023-04-18T09:38:22.733Z,20.23
2023-04-18T09:40:49.232Z,21.52
2023-04-18T09:43:15.765Z,21.23
2023-04-18T09:45:42.347Z,21.02
2023-04-18T09:48:08.930Z,21.77
2023-04-18T09:50:35.506Z,22.15
2023-04-18T09:53:02.032Z,21.69
2023-04-18T09:55:28.569Z,19.92
2023-04-18T09:57:55.155Z,19.48
2023-04-18T10:00:21.738Z,21.01
2023-04-18T10:02:48.354Z,20.26
2023-04-18T10:05:14.887Z,19.67
2023-04-18T10:07:41.430Z,19.44
2023-04-18T10:10:08.000Z,20.03
2023-04-18T10:12:34.535Z,19.67
2023-04-18T10:15:01.051Z,21.80
2023-04-18T10:17:29.287Z,20.96
2023-04-18T10:19:56.292Z,20.58
2023-04-18T10:22:22.856Z,20.04
2023-04-18T10:24:49.376Z,19.90
2023-04-18T10:27:15.890Z,19.43
2023-04-18T10:29:42.441Z,19.35
2023-04-18T10:32:08.956Z,19.40
2023-04-18T10:34:35.607Z,20.25
2023-04-18T10:37:02.173Z,20.39
2023-04-18T10:39:28.645Z,20.13
2023-04-18T10:41:55.178Z,19.33
2023-04-18T10:44:21.707Z,18.33
2023-04-18T10:46:48.317Z,19.18
2023-04-18T10:49:15.062Z,38.53
2023-04-18T10:51:41.994Z,148.61
2023-04-18T10:54:08.555Z,200.33
2023-04-18T10:56:35.057Z,279.69
2023-04-18T10:59:01.666Z,262.28
2023-04-18T11:01:31.698Z,289.43
2023-04-18T11:03:58.917Z,337.82
2023-04-18T11:06:25.566Z,316.33
2023-04-18T11:08:52.365Z,321.12
2023-04-18T11:11:19.511Z,322.19
2023-04-18T11:13:46.728Z,306.55
2023-04-18T11:16:13.279Z,297.16
2023-04-18T11:18:39.791Z,287.70
2023-04-18T11:21:06.307Z,280.54
2023-04-18T11:23:32.850Z,260.73
2023-04-18T11:25:59.335Z,266.04
2023-04-18T11:28:25.840Z,251.95
2023-04-18T11:30:55.416Z,249.90
2023-04-18T11:33:21.950Z,235.06
2023-04-18T11:35:48.487Z,229.32
2023-04-18T11:38:15.048Z,225.84
2023-04-18T11:40:41.768Z,224.82
2023-04-18T11:43:08.265Z,211.24
2023-04-18T11:45:34.818Z,215.42
2023-04-18T11:48:01.539Z,210.32
2023-04-18T11:50:28.112Z,201.56
2023-04-18T11:52:54.626Z,196.86
2023-04-18T11:55:21.200Z,190.28
2023-04-18T11:57:47.765Z,195.05
2023-04-18T12:00:14.239Z,194.50
2023-04-18T12:02:40.913Z,182.07
2023-04-18T12:05:07.887Z,183.02
2023-04-18T12:07:34.667Z,181.59
2023-04-18T12:10:01.182Z,176.56
2023-04-18T12:12:27.659Z,171.18
2023-04-18T12:14:54.215Z,172.99
2023-04-18T12:17:20.681Z,167.81
2023-04-18T12:19:49.221Z,170.99
2023-04-18T12:22:16.311Z,168.02
2023-04-18T12:24:42.814Z,168.47
2023-04-18T12:27:09.348Z,162.00
2023-04-18T12:29:35.820Z,160.20
2023-04-18T12:32:02.399Z,158.33
2023-04-18T12:34:28.964Z,160.95
2023-04-18T12:36:55.482Z,157.34
2023-04-18T12:39:21.991Z,150.86
2023-04-18T12:41:49.820Z,153.44
2023-04-18T12:44:16.605Z,151.03
2023-04-18T12:46:43.173Z,151.14
2023-04-18T12:49:09.745Z,145.78
2023-04-18T12:51:36.323Z,145.31
2023-04-18T12:54:02.949Z,143.21
2023-04-18T12:56:29.463Z,142.97
2023-04-18T12:58:55.903Z,143.22
2023-04-18T13:01:22.440Z,141.60
2023-04-18T13:03:59.974Z,138.75
2023-04-18T13:06:35.306Z,138.72
2023-04-18T13:09:01.756Z,135.98
2023-04-18T13:11:28.280Z,135.42
2023-04-18T13:13:54.772Z,132.28
2023-04-18T13:16:21.360Z,132.48
2023-04-18T13:18:47.845Z,128.73
2023-04-18T13:21:14.364Z,129.96
2023-04-18T13:23:40.876Z,129.24
2023-04-18T13:26:07.382Z,125.87
2023-04-18T13:28:34.142Z,125.91
2023-04-18T13:31:00.837Z,125.59
2023-04-18T13:33:27.401Z,123.69
2023-04-18T13:35:53.980Z,122.83
2023-04-18T13:38:20.637Z,119.60
2023-04-18T13:40:47.213Z,120.52
2023-04-18T13:43:13.683Z,115.95
2023-04-18T13:45:40.287Z,118.79
2023-04-18T13:48:06.925Z,116.34
2023-04-18T13:50:33.456Z,111.80
2023-04-18T13:53:00.030Z,110.38
2023-04-18T13:55:26.521Z,114.14
2023-04-18T13:57:53.014Z,108.32
2023-04-18T14:00:19.552Z,107.65
2023-04-18T14:02:48.678Z,106.12
2023-04-18T14:05:15.316Z,109.71
2023-04-18T14:07:41.800Z,108.47
2023-04-18T14:10:08.383Z,104.86
2023-04-18T14:12:34.927Z,105.41
2023-04-18T14:15:01.372Z,102.05
2023-04-18T14:17:27.832Z,104.12
2023-04-18T14:19:54.332Z,102.69
2023-04-18T14:22:20.858Z,104.72
2023-04-18T14:24:47.300Z,96.17
2023-04-18T14:27:13.854Z,99.19
2023-04-18T14:29:40.381Z,100.25
2023-04-18T14:32:06.944Z,100.13
2023-04-18T14:34:34.324Z,99.29
2023-04-18T14:37:01.849Z,97.23
2023-04-18T14:39:28.314Z,98.25
2023-04-18T14:41:54.737Z,96.94
2023-04-18T14:44:21.265Z,96.17
2023-04-18T14:46:47.796Z,98.33
2023-04-18T14:49:14.618Z,95.77
2023-04-18T14:51:41.336Z,94.47
2023-04-18T14:54:07.814Z,92.82
2023-04-18T14:56:34.263Z,92.72
2023-04-18T14:59:02.383Z,93.02
2023-04-18T15:01:29.098Z,93.20
2023-04-18T15:03:55.779Z,91.87
2023-04-18T15:06:22.450Z,86.35
2023-04-18T15:08:49.118Z,84.90
2023-04-18T15:11:15.680Z,83.01
2023-04-18T15:13:42.383Z,84.95
2023-04-18T15:16:08.965Z,80.57
2023-04-18T15:18:35.458Z,83.55
2023-04-18T15:21:02.169Z,78.59
2023-04-18T15:23:28.651Z,78.75
2023-04-18T15:25:55.113Z,77.92
2023-04-18T15:28:21.510Z,77.81
2023-04-18T15:30:47.925Z,80.55
2023-04-18T15:33:14.849Z,80.30
2023-04-18T15:35:41.473Z,78.26
2023-04-18T15:38:07.978Z,77.83
2023-04-18T15:40:34.423Z,78.66
2023-04-18T15:43:00.944Z,76.23
2023-04-18T15:45:28.808Z,74.63
2023-04-18T15:47:55.379Z,74.76
2023-04-18T15:50:21.920Z,77.17
2023-04-18T15:52:51.455Z,76.36
2023-04-18T15:55:18.010Z,76.65
2023-04-18T15:57:44.482Z,74.70
2023-04-18T16:00:10.891Z,76.53
2023-04-18T16:02:37.435Z,75.95
2023-04-18T16:05:04.032Z,76.38
2023-04-18T16:07:30.564Z,73.45
2023-04-18T16:09:57.117Z,74.07
2023-04-18T16:12:23.667Z,73.31
2023-04-18T16:14:50.114Z,73.89
2023-04-18T16:17:16.641Z,74.28
2023-04-18T16:19:43.184Z,72.20
2023-04-18T16:22:09.636Z,72.35
2023-04-18T16:24:36.109Z,73.89
2023-04-18T16:27:02.548Z,72.31
2023-04-18T16:29:29.077Z,70.42
2023-04-18T16:31:55.579Z,72.21
2023-04-18T16:34:22.087Z,69.74
2023-04-18T16:36:50.804Z,72.33
2023-04-18T16:39:17.693Z,78.10
2023-04-18T16:41:44.220Z,77.15
2023-04-18T16:44:10.692Z,76.82
2023-04-18T16:46:37.358Z,74.95
2023-04-18T16:49:03.951Z,75.47
2023-04-18T16:51:30.487Z,75.53
2023-04-18T16:53:57.103Z,76.13
2023-04-18T16:56:23.685Z,77.09
2023-04-18T16:58:50.175Z,76.70
2023-04-18T17:01:16.648Z,75.48
2023-04-18T17:03:43.207Z,75.67
2023-04-18T17:06:09.773Z,76.72
2023-04-18T17:08:36.277Z,82.09
2023-04-18T17:11:02.705Z,78.11
2023-04-18T17:13:29.149Z,73.13
2023-04-18T17:15:55.731Z,69.44
2023-04-18T17:18:22.414Z,66.68
2023-04-18T17:20:48.999Z,80.50
2023-04-18T17:23:15.479Z,94.23
2023-04-18T17:25:41.985Z,79.35
2023-04-18T17:28:08.562Z,71.34
2023-04-18T17:30:35.020Z,70.94
2023-04-18T17:33:01.496Z,71.45
2023-04-18T17:35:28.061Z,73.80
2023-04-18T17:37:54.526Z,73.28
2023-04-18T17:40:21.004Z,73.25
2023-04-18T17:42:47.513Z,73.11
2023-04-18T17:45:14.057Z,71.28
2023-04-18T17:47:40.679Z,71.86
2023-04-18T17:50:07.192Z,74.56
2023-04-18T17:52:33.674Z,73.44
2023-04-18T17:55:00.161Z,72.86
2023-04-18T17:57:26.722Z,71.23
2023-04-18T17:59:53.170Z,72.37
2023-04-18T18:02:19.647Z,71.89
2023-04-18T18:04:46.163Z,69.27
2023-04-18T18:07:12.669Z,69.94
2023-04-18T18:09:39.097Z,70.75
2023-04-18T18:12:05.569Z,72.26
2023-04-18T18:14:32.067Z,72.42
2023-04-18T18:16:59.694Z,74.54
2023-04-18T18:19:26.174Z,76.34
2023-04-18T18:21:52.683Z,76.97
2023-04-18T18:24:19.167Z,69.01
2023-04-18T18:26:45.739Z,70.24
2023-04-18T18:29:12.338Z,68.63
2023-04-18T18:31:39.070Z,62.47
2023-04-18T18:34:05.579Z,59.84
2023-04-18T18:36:31.991Z,61.47
2023-04-18T18:38:58.485Z,58.95
2023-04-18T18:41:24.979Z,60.73
2023-04-18T18:43:51.415Z,62.24
2023-04-18T18:46:18.182Z,61.69
2023-04-18T18:48:44.765Z,58.00
2023-04-18T18:51:11.580Z,62.03
2023-04-18T18:53:40.257Z,61.78
2023-04-18T18:56:07.167Z,61.64
2023-04-18T18:58:33.583Z,62.23
2023-04-18T19:01:00.074Z,63.28
2023-04-18T19:03:26.703Z,60.62
2023-04-18T19:05:53.319Z,60.43
2023-04-18T19:08:19.818Z,62.69
2023-04-18T19:10:46.252Z,59.96
2023-04-18T19:13:14.532Z,62.24
2023-04-18T19:15:40.949Z,59.25
2023-04-18T19:18:08.926Z,57.24
2023-04-18T19:20:35.530Z,59.99
2023-04-18T19:23:01.943Z,58.88
2023-04-18T19:25:28.421Z,60.22
2023-04-18T19:27:56.295Z,57.76
2023-04-18T19:30:22.785Z,58.06
2023-04-18T19:32:49.305Z,58.40
2023-04-18T19:35:15.914Z,58.03
2023-04-18T19:37:42.442Z,59.49
2023-04-18T19:40:08.953Z,58.12
2023-04-18T19:42:35.505Z,122.76
2023-04-18T19:45:01.998Z,71.09
2023-04-18T19:47:28.542Z,67.60
2023-04-18T19:49:55.648Z,67.27
2023-04-18T19:52:22.346Z,67.33
2023-04-18T19:54:48.925Z,63.05
2023-04-18T19:57:15.445Z,63.22
2023-04-18T19:59:41.879Z,64.96
2023-04-18T20:02:08.464Z,62.94
2023-04-18T20:04:35.206Z,63.26
2023-04-18T20:07:01.856Z,62.14
2023-04-18T20:09:28.389Z,62.38
2023-04-18T20:11:54.886Z,61.83
2023-04-18T20:14:21.333Z,59.84
2023-04-18T20:16:47.860Z,59.58
2023-04-18T20:19:17.657Z,61.85
2023-04-18T20:21:44.499Z,59.38
2023-04-18T20:24:11.042Z,60.96
2023-04-18T20:26:37.554Z,60.08
2023-04-18T20:29:04.111Z,59.19
2023-04-18T20:31:30.713Z,57.49
2023-04-18T20:33:57.339Z,58.74
2023-04-18T20:36:23.899Z,58.50
2023-04-18T20:38:50.349Z,59.21
2023-04-18T20:41:16.974Z,57.77
2023-04-18T20:43:43.553Z,58.94
2023-04-18T20:46:10.161Z,57.69
2023-04-18T20:48:36.655Z,59.56
2023-04-18T20:51:03.231Z,57.89
2023-04-18T20:53:29.756Z,57.68
2023-04-18T20:55:56.351Z,58.80
2023-04-18T20:58:22.924Z,55.09
2023-04-18T21:00:49.448Z,57.16
2023-04-18T21:03:16.219Z,56.98
2023-04-18T21:05:43.016Z,56.67
2023-04-18T21:08:09.518Z,55.99
2023-04-18T21:10:36.035Z,55.65
2023-04-18T21:13:02.547Z,55.22
2023-04-18T21:15:29.162Z,54.61
2023-04-18T21:17:55.863Z,55.00
2023-04-18T21:20:22.461Z,55.69
2023-04-18T21:22:49.037Z,54.79
2023-04-18T21:25:15.576Z,54.33
2023-04-18T21:27:42.070Z,51.21
2023-04-18T21:30:08.687Z,54.69
2023-04-18T21:32:35.245Z,55.01
2023-04-18T21:35:01.845Z,54.85
2023-04-18T21:37:28.291Z,52.81
2023-04-18T21:39:54.808Z,53.33
2023-04-18T21:42:21.357Z,53.01
2023-04-18T21:44:47.877Z,51.23
2023-04-18T21:47:14.409Z,55.10
2023-04-18T21:49:40.961Z,53.08
2023-04-18T21:52:07.446Z,52.36
2023-04-18T21:54:33.994Z,53.07
2023-04-18T21:57:00.524Z,52.82
2023-04-18T21:59:27.085Z,53.64
2023-04-18T22:01:53.617Z,51.30
2023-04-18T22:04:20.423Z,51.58
2023-04-18T22:06:47.179Z,51.23
2023-04-18T22:09:13.707Z,53.03
2023-04-18T22:11:40.286Z,50.67
2023-04-18T22:14:06.792Z,49.92
2023-04-18T22:16:33.429Z,50.15
2023-04-18T22:18:59.917Z,52.38
2023-04-18T22:21:26.437Z,49.89
2023-04-18T22:23:53.016Z,51.92
2023-04-18T22:26:19.535Z,50.55
2023-04-18T22:28:46.113Z,48.35
2023-04-18T22:31:12.653Z,47.71
2023-04-18T22:33:39.178Z,47.94
2023-04-18T22:36:05.750Z,50.06
2023-04-18T22:38:32.315Z,47.82
2023-04-18T22:40:58.899Z,51.45
2023-04-18T22:43:25.381Z,50.81
2023-04-18T22:45:51.894Z,51.60
2023-04-18T22:48:18.491Z,49.20
2023-04-18T22:50:45.028Z,49.60
2023-04-18T22:53:11.587Z,48.58
2023-04-18T22:55:38.171Z,48.84
2023-04-18T22:58:04.834Z,48.31
2023-04-18T23:00:31.385Z,48.77
2023-04-18T23:02:58.025Z,48.45
2023-04-18T23:05:24.621Z,49.46
2023-04-18T23:07:51.252Z,48.07
2023-04-18T23:10:17.829Z,48.79
2023-04-18T23:12:44.358Z,47.52
2023-04-18T23:15:11.049Z,48.93
2023-04-18T23:17:37.686Z,49.59
2023-04-18T23:20:06.041Z,49.19
2023-04-18T23:22:32.503Z,48.17
2023-04-18T23:24:59.036Z,50.09
2023-04-18T23:27:25.573Z,48.18
2023-04-18T23:29:52.071Z,48.05
2023-04-18T23:32:18.559Z,46.49
2023-04-18T23:34:47.859Z,46.22
2023-04-18T23:37:14.341Z,46.12
2023-04-18T23:39:40.841Z,47.19
2023-04-18T23:42:07.338Z,45.94
2023-04-18T23:44:33.884Z,47.22
2023-04-18T23:47:00.416Z,49.13
2023-04-18T23:49:26.980Z,47.38
2023-04-18T23:51:53.590Z,44.72
2023-04-18T23:54:20.081Z,45.65
2023-04-18T23:56:46.655Z,46.53
2023-04-18T23:59:13.194Z,47.10
